Airfield :
LOGIN :

Register | Disclaimer

   EN    FR    IT 

 










Legend :    VFR   Marginal VFR   IFR   Intensive IFR   Very Intensive IFR
Visi :
Ceiling :
>= 8 km
>= 3000ft
5 to 8 km
1000 to 3000 ft
1500m to 5 km
500 to 1000 ft
800 to 1500m
200 to 500 ft
< 800m
< 200 ft
Symbols :   Thunderstorms  Fog  Heavy snow  Heavy precipitations  Wind > 20 kt
SIGMETs :     Misc.  Thunderstorms  Icing  Turbulence  Mountain Waves  Volcanic Ashes







- Airport Elevation : 935 ft


EBFS - Florennes

CURRENT METAR :
  • 181725Z AUTO 31005KT 9999 -RA SCT021/// BKN032/// OVC050/// 05/01 Q1003 WHT

EXPIRED METARs :
  • 181655Z AUTO 27007KT 9999 FEW027/// BKN044/// BKN070/// 05/01 Q1003 BLU
  • 181625Z AUTO 26009KT 9999 FEW036/// 05/00 Q1003 BLU
  • 181624Z 26009KT 9999 FEW028 SCT032 05/00 Q1003 BLU FCST CANCEL
  • 181555Z 26012KT 9999 FEW028 SCT032 06/00 Q1003 BLU BLU TEMPO WHT
  • 181525Z 26013KT 9999 FEW028 SCT032 06/00 Q1003 BLU BLU TEMPO WHT
  • 181455Z 26016KT 9999 FEW028 SCT032 07/00 Q1003 BLU BLU TEMPO WHT

TAF TAF EBFS
Valid from the 18 at 13:00 until the 18 at 22:00 UTC


181141Z 1813/1822 27015G25KT 9999 FEW025 BKN030
TEMPO 1813/1816 27022G32KT 5000 -SHRA SCT020TCU BKN025
BECMG 1816/1818 27012G22KT SCT020 BKN025
TEMPO 1816/1822 4000 SHRA FEW010 SCT015TCU BKN020
PROB30
TEMPO 1817/1820 27020G32KT 3000 SHRASN -TSRAGS FEW008 SCT012CB BKN015
No reported NOTAMs for that airfield.



MET'MAP, your aeronautical weather chart ! - Copyright ORBIFLY December 2007 - Disclaimer

ORBIFLY MET'MAP TEAM :

Programming & Development : Alexandra Zaïnal
Concept & Development : Baudouin d'Aumeries
Co-Development & Prog : Marc-Olivier Méhu
Technical & hardware support : Manuel Goepfert

Contact : metmap@orbifly.com




SOURCES & CREDITS :

   NOAA